JP-0081 weather

Yoshima Helipad
Yoshima, Kagawa Prefecture, Japan

Public forecast

Using degrees Celsius for public forecast. Weather courtesy of forecast.io.

Closest aviation weather report (METAR) to Yoshima Helipad

Closest report is Takamatsu Airport, 14.6 nm (27.0 km) SE. Retrieved 2019/10/21 07:00 UTC (11 minutes ago):

RJOT 210700Z 10004KT 070V130 9999 -SHRA FEW003 SCT015 BKN025 17/17 Q1012

Closest aviation forecast (TAF) to Yoshima Helipad

Closest forecast is Takamatsu Airport, 14.6 nm (27.0 km) SE. Retrieved 2019/10/21 06:30 UTC (41 minutes ago):

TAF TAF RJOT 210514Z 2106/2212 07009KT 8000 -RA FEW008 SCT015 BKN025 TEMPO 2106/2113 4000 -RA BR FEW003 BKN008 BKN015 BECMG 2118/2121 28008KT